sensor_id;sensor_type;location;lat;lon;timestamp;pressure;altitude;pressure_sealevel;temperature;humidity
14067;BME280;7108;42.684;23.350;2023-04-29T00:01:22;95395.63;;;9.69;100.00
14067;BME280;7108;42.684;23.350;2023-04-29T00:03:48;95389.13;;;9.70;100.00
14067;BME280;7108;42.684;23.350;2023-04-29T00:06:16;95389.03;;;9.67;100.00
14067;BME280;7108;42.684;23.350;2023-04-29T00:08:42;95386.84;;;9.57;100.00
14067;BME280;7108;42.684;23.350;2023-04-29T00:11:07;95392.06;;;9.65;100.00
14067;BME280;7108;42.684;23.350;2023-04-29T00:13:33;95382.78;;;9.63;100.00
14067;BME280;7108;42.684;23.350;2023-04-29T00:15:58;95394.75;;;9.65;100.00
14067;BME280;7108;42.684;23.350;2023-04-29T00:18:26;95394.66;;;9.62;100.00
14067;BME280;7108;42.684;23.350;2023-04-29T00:20:51;95395.03;;;9.60;100.00
14067;BME280;7108;42.684;23.350;2023-04-29T00:23:17;95404.66;;;9.61;100.00
14067;BME280;7108;42.684;23.350;2023-04-29T00:25:42;95407.59;;;9.56;100.00
14067;BME280;7108;42.684;23.350;2023-04-29T00:28:07;95406.91;;;9.59;100.00
14067;BME280;7108;42.684;23.350;2023-04-29T00:30:33;95407.59;;;9.56;100.00
14067;BME280;7108;42.684;23.350;2023-04-29T00:32:59;95400.31;;;9.57;100.00
14067;BME280;7108;42.684;23.350;2023-04-29T00:35:24;95409.50;;;9.56;100.00
14067;BME280;7108;42.684;23.350;2023-04-29T00:37:50;95405.94;;;9.52;100.00
14067;BME280;7108;42.684;23.350;2023-04-29T00:40:16;95403.16;;;9.48;100.00
14067;BME280;7108;42.684;23.350;2023-04-29T00:42:42;95403.31;;;9.40;100.00
14067;BME280;7108;42.684;23.350;2023-04-29T00:45:11;95395.41;;;9.31;100.00
14067;BME280;7108;42.684;23.350;2023-04-29T00:47:39;95403.22;;;9.36;100.00
14067;BME280;7108;42.684;23.350;2023-04-29T00:50:08;95397.22;;;9.27;100.00
14067;BME280;7108;42.684;23.350;2023-04-29T00:52:37;95399.50;;;9.25;100.00
14067;BME280;7108;42.684;23.350;2023-04-29T00:55:04;95393.13;;;9.18;100.00
14067;BME280;7108;42.684;23.350;2023-04-29T00:57:30;95385.06;;;9.18;100.00
14067;BME280;7108;42.684;23.350;2023-04-29T00:59:56;95365.47;;;9.02;100.00
14067;BME280;7108;42.684;23.350;2023-04-29T01:02:23;95370.84;;;9.02;100.00
14067;BME280;7108;42.684;23.350;2023-04-29T01:04:50;95372.47;;;9.07;100.00
14067;BME280;7108;42.684;23.350;2023-04-29T01:07:53;95377.66;;;9.00;100.00
14067;BME280;7108;42.684;23.350;2023-04-29T01:11:22;95374.91;;;8.96;100.00
14067;BME280;7108;42.684;23.350;2023-04-29T01:13:30;95381.28;;;8.92;100.00
14067;BME280;7108;42.684;23.350;2023-04-29T01:16:01;95376.38;;;8.94;100.00
14067;BME280;7108;42.684;23.350;2023-04-29T01:18:38;95368.88;;;8.87;100.00
14067;BME280;7108;42.684;23.350;2023-04-29T01:21:08;95379.09;;;8.82;100.00
14067;BME280;7108;42.684;23.350;2023-04-29T01:23:33;95368.34;;;8.82;100.00
14067;BME280;7108;42.684;23.350;2023-04-29T01:25:59;95372.41;;;8.76;100.00
14067;BME280;7108;42.684;23.350;2023-04-29T01:34:12;95374.56;;;8.70;100.00
14067;BME280;7108;42.684;23.350;2023-04-29T01:36:50;95365.84;;;8.61;100.00
14067;BME280;7108;42.684;23.350;2023-04-29T01:41:56;95368.28;;;8.66;100.00
14067;BME280;7108;42.684;23.350;2023-04-29T01:44:28;95372.53;;;8.67;100.00
14067;BME280;7108;42.684;23.350;2023-04-29T01:46:56;95366.75;;;8.65;100.00
14067;BME280;7108;42.684;23.350;2023-04-29T01:49:26;95374.47;;;8.67;100.00
14067;BME280;7108;42.684;23.350;2023-04-29T01:51:54;95371.88;;;8.70;100.00
14067;BME280;7108;42.684;23.350;2023-04-29T01:54:20;95368.84;;;8.72;100.00
14067;BME280;7108;42.684;23.350;2023-04-29T01:56:51;95361.91;;;8.71;100.00
14067;BME280;7108;42.684;23.350;2023-04-29T01:59:17;95360.56;;;8.65;100.00
14067;BME280;7108;42.684;23.350;2023-04-29T02:01:42;95360.06;;;8.59;100.00
14067;BME280;7108;42.684;23.350;2023-04-29T02:04:08;95368.63;;;8.65;100.00
14067;BME280;7108;42.684;23.350;2023-04-29T02:06:33;95370.91;;;8.63;100.00
14067;BME280;7108;42.684;23.350;2023-04-29T02:08:59;95365.84;;;8.61;100.00
14067;BME280;7108;42.684;23.350;2023-04-29T02:11:24;95368.66;;;8.53;100.00
14067;BME280;7108;42.684;23.350;2023-04-29T02:13:50;95373.38;;;8.56;100.00
14067;BME280;7108;42.684;23.350;2023-04-29T02:16:16;95376.06;;;8.56;100.00
14067;BME280;7108;42.684;23.350;2023-04-29T02:18:41;95373.03;;;8.57;100.00
14067;BME280;7108;42.684;23.350;2023-04-29T02:21:07;95378.41;;;8.57;100.00
14067;BME280;7108;42.684;23.350;2023-04-29T02:23:34;95377.28;;;8.58;100.00
14067;BME280;7108;42.684;23.350;2023-04-29T02:25:59;95360.97;;;8.51;100.00
14067;BME280;7108;42.684;23.350;2023-04-29T02:28:32;95363.31;;;8.53;100.00
14067;BME280;7108;42.684;23.350;2023-04-29T02:30:58;95372.59;;;8.55;100.00
14067;BME280;7108;42.684;23.350;2023-04-29T02:33:24;95377.63;;;8.57;100.00
14067;BME280;7108;42.684;23.350;2023-04-29T02:35:50;95370.34;;;8.57;100.00
14067;BME280;7108;42.684;23.350;2023-04-29T02:38:18;95364.34;;;8.48;100.00
14067;BME280;7108;42.684;23.350;2023-04-29T02:40:44;95375.59;;;8.54;100.00
14067;BME280;7108;42.684;23.350;2023-04-29T02:43:10;95368.00;;;8.56;100.00
14067;BME280;7108;42.684;23.350;2023-04-29T02:45:37;95368.66;;;8.53;100.00
14067;BME280;7108;42.684;23.350;2023-04-29T02:48:03;95366.38;;;8.40;100.00
14067;BME280;7108;42.684;23.350;2023-04-29T02:50:29;95358.56;;;8.35;100.00
14067;BME280;7108;42.684;23.350;2023-04-29T02:52:54;95380.13;;;8.38;100.00
14067;BME280;7108;42.684;23.350;2023-04-29T02:55:20;95373.13;;;8.34;100.00
14067;BME280;7108;42.684;23.350;2023-04-29T02:57:45;95376.03;;;8.29;100.00
14067;BME280;7108;42.684;23.350;2023-04-29T03:00:11;95386.88;;;8.32;100.00
14067;BME280;7108;42.684;23.350;2023-04-29T03:02:37;95397.41;;;8.25;100.00
14067;BME280;7108;42.684;23.350;2023-04-29T03:05:03;95395.94;;;8.28;100.00
14067;BME280;7108;42.684;23.350;2023-04-29T03:07:29;95390.69;;;8.19;100.00
14067;BME280;7108;42.684;23.350;2023-04-29T03:09:55;95386.63;;;8.13;100.00
14067;BME280;7108;42.684;23.350;2023-04-29T03:12:20;95386.22;;;8.11;100.00
14067;BME280;7108;42.684;23.350;2023-04-29T03:14:46;95381.03;;;8.06;100.00
14067;BME280;7108;42.684;23.350;2023-04-29T03:17:12;95384.53;;;8.07;100.00
14067;BME280;7108;42.684;23.350;2023-04-29T03:19:38;95379.16;;;7.95;100.00
14067;BME280;7108;42.684;23.350;2023-04-29T03:22:03;95381.66;;;7.88;100.00
14067;BME280;7108;42.684;23.350;2023-04-29T03:24:29;95395.25;;;7.95;100.00
14067;BME280;7108;42.684;23.350;2023-04-29T03:26:55;95403.78;;;7.97;100.00
14067;BME280;7108;42.684;23.350;2023-04-29T03:29:20;95397.59;;;7.96;100.00
14067;BME280;7108;42.684;23.350;2023-04-29T03:31:46;95409.25;;;8.00;100.00
14067;BME280;7108;42.684;23.350;2023-04-29T03:34:11;95412.81;;;7.92;100.00
14067;BME280;7108;42.684;23.350;2023-04-29T03:36:39;95427.91;;;7.85;100.00
14067;BME280;7108;42.684;23.350;2023-04-29T03:39:06;95427.78;;;7.81;100.00
14067;BME280;7108;42.684;23.350;2023-04-29T03:41:32;95422.66;;;7.77;100.00
14067;BME280;7108;42.684;23.350;2023-04-29T03:43:58;95421.88;;;7.76;100.00
14067;BME280;7108;42.684;23.350;2023-04-29T03:46:27;95429.34;;;7.71;100.00
14067;BME280;7108;42.684;23.350;2023-04-29T03:48:53;95423.66;;;7.84;100.00
14067;BME280;7108;42.684;23.350;2023-04-29T03:51:25;95427.25;;;7.88;100.00
14067;BME280;7108;42.684;23.350;2023-04-29T03:53:52;95421.66;;;7.81;100.00
14067;BME280;7108;42.684;23.350;2023-04-29T03:56:18;95417.53;;;7.83;100.00
14067;BME280;7108;42.684;23.350;2023-04-29T03:58:44;95417.28;;;7.88;100.00
14067;BME280;7108;42.684;23.350;2023-04-29T04:01:10;95409.03;;;7.93;100.00
14067;BME280;7108;42.684;23.350;2023-04-29T04:03:36;95404.44;;;7.94;100.00
14067;BME280;7108;42.684;23.350;2023-04-29T04:06:02;95411.47;;;7.98;100.00
14067;BME280;7108;42.684;23.350;2023-04-29T04:08:30;95414.94;;;7.99;100.00
14067;BME280;7108;42.684;23.350;2023-04-29T04:10:55;95409.25;;;8.00;100.00
14067;BME280;7108;42.684;23.350;2023-04-29T04:13:30;95425.13;;;8.05;100.00
14067;BME280;7108;42.684;23.350;2023-04-29T04:15:55;95433.72;;;8.11;100.00
14067;BME280;7108;42.684;23.350;2023-04-29T04:18:21;95429.91;;;8.12;100.00
14067;BME280;7108;42.684;23.350;2023-04-29T04:20:47;95414.72;;;8.16;100.00
14067;BME280;7108;42.684;23.350;2023-04-29T04:23:12;95429.72;;;8.29;100.00
14067;BME280;7108;42.684;23.350;2023-04-29T04:25:46;95424.78;;;8.31;100.00
14067;BME280;7108;42.684;23.350;2023-04-29T04:28:11;95429.38;;;8.42;100.00
14067;BME280;7108;42.684;23.350;2023-04-29T04:30:37;95424.06;;;8.46;100.00
14067;BME280;7108;42.684;23.350;2023-04-29T04:33:02;95403.28;;;8.43;100.00
14067;BME280;7108;42.684;23.350;2023-04-29T04:35:28;95404.72;;;8.52;100.00
14067;BME280;7108;42.684;23.350;2023-04-29T04:37:53;95417.91;;;8.57;100.00
14067;BME280;7108;42.684;23.350;2023-04-29T04:40:19;95404.72;;;8.52;100.00
14067;BME280;7108;42.684;23.350;2023-04-29T04:42:48;95416.97;;;8.65;100.00
14067;BME280;7108;42.684;23.350;2023-04-29T04:45:13;95420.75;;;8.76;100.00
14067;BME280;7108;42.684;23.350;2023-04-29T04:47:39;95435.16;;;8.83;100.00
14067;BME280;7108;42.684;23.350;2023-04-29T04:50:06;95432.84;;;8.82;100.00
14067;BME280;7108;42.684;23.350;2023-04-29T04:52:35;95425.75;;;8.89;100.00
14067;BME280;7108;42.684;23.350;2023-04-29T04:55:03;95432.00;;;8.93;100.00
14067;BME280;7108;42.684;23.350;2023-04-29T04:57:29;95427.31;;;8.90;100.00
14067;BME280;7108;42.684;23.350;2023-04-29T04:59:54;95411.31;;;8.94;100.00
14067;BME280;7108;42.684;23.350;2023-04-29T05:02:20;95418.88;;;9.04;100.00
14067;BME280;7108;42.684;23.350;2023-04-29T05:04:45;95412.28;;;9.01;100.00
14067;BME280;7108;42.684;23.350;2023-04-29T05:07:11;95413.03;;;9.02;100.00
14067;BME280;7108;42.684;23.350;2023-04-29T05:09:36;95408.63;;;8.94;100.00
14067;BME280;7108;42.684;23.350;2023-04-29T05:12:07;95383.28;;;8.95;100.00
14067;BME280;7108;42.684;23.350;2023-04-29T05:14:33;95394.47;;;8.97;100.00
14067;BME280;7108;42.684;23.350;2023-04-29T05:16:59;95401.63;;;9.05;100.00
14067;BME280;7108;42.684;23.350;2023-04-29T05:19:27;95392.38;;;8.90;100.00
14067;BME280;7108;42.684;23.350;2023-04-29T05:21:55;95385.72;;;9.00;100.00
14067;BME280;7108;42.684;23.350;2023-04-29T05:24:21;95385.25;;;9.10;100.00
14067;BME280;7108;42.684;23.350;2023-04-29T05:26:49;95375.25;;;9.10;100.00
14067;BME280;7108;42.684;23.350;2023-04-29T05:29:16;95380.03;;;9.16;100.00
14067;BME280;7108;42.684;23.350;2023-04-29T05:31:41;95372.38;;;9.30;100.00
14067;BME280;7108;42.684;23.350;2023-04-29T05:34:07;95383.72;;;9.39;100.00
14067;BME280;7108;42.684;23.350;2023-04-29T05:36:32;95375.38;;;9.29;100.00
14067;BME280;7108;42.684;23.350;2023-04-29T05:39:01;95377.53;;;9.39;100.00
14067;BME280;7108;42.684;23.350;2023-04-29T05:41:29;95382.19;;;9.54;100.00
14067;BME280;7108;42.684;23.350;2023-04-29T05:43:55;95378.78;;;9.57;100.00
14067;BME280;7108;42.684;23.350;2023-04-29T05:46:26;95373.75;;;9.55;100.00
14067;BME280;7108;42.684;23.350;2023-04-29T05:48:51;95366.56;;;9.59;100.00
14067;BME280;7108;42.684;23.350;2023-04-29T05:51:18;95369.06;;;9.68;100.00
14067;BME280;7108;42.684;23.350;2023-04-29T05:53:43;95378.84;;;9.76;100.00
14067;BME280;7108;42.684;23.350;2023-04-29T05:56:09;95377.56;;;9.85;100.00
14067;BME280;7108;42.684;23.350;2023-04-29T05:58:37;95379.03;;;9.82;100.00
14067;BME280;7108;42.684;23.350;2023-04-29T06:01:02;95382.84;;;10.12;100.00
14067;BME280;7108;42.684;23.350;2023-04-29T06:03:28;95378.72;;;10.34;100.00
14067;BME280;7108;42.684;23.350;2023-04-29T06:05:57;95375.56;;;10.47;100.00
14067;BME280;7108;42.684;23.350;2023-04-29T06:08:28;95383.25;;;10.83;100.00
14067;BME280;7108;42.684;23.350;2023-04-29T06:10:57;95367.28;;;10.74;100.00
14067;BME280;7108;42.684;23.350;2023-04-29T06:13:25;95354.22;;;10.95;100.00
14067;BME280;7108;42.684;23.350;2023-04-29T06:16:00;95369.97;;;11.12;100.00
14067;BME280;7108;42.684;23.350;2023-04-29T06:18:32;95357.00;;;10.99;100.00
14067;BME280;7108;42.684;23.350;2023-04-29T06:20:57;95365.69;;;11.11;100.00
14067;BME280;7108;42.684;23.350;2023-04-29T06:23:28;95362.91;;;11.26;100.00
14067;BME280;7108;42.684;23.350;2023-04-29T06:25:56;95365.22;;;11.28;100.00
14067;BME280;7108;42.684;23.350;2023-04-29T06:28:25;95371.47;;;11.32;100.00
14067;BME280;7108;42.684;23.350;2023-04-29T06:30:54;95367.63;;;11.52;100.00
14067;BME280;7108;42.684;23.350;2023-04-29T06:33:22;95366.84;;;11.74;100.00
14067;BME280;7108;42.684;23.350;2023-04-29T06:35:51;95372.03;;;11.85;100.00
14067;BME280;7108;42.684;23.350;2023-04-29T06:38:21;95368.72;;;11.95;99.43
14067;BME280;7108;42.684;23.350;2023-04-29T06:40:49;95366.53;;;12.01;96.67
14067;BME280;7108;42.684;23.350;2023-04-29T06:43:26;95358.00;;;11.99;97.53
14067;BME280;7108;42.684;23.350;2023-04-29T06:45:55;95365.16;;;12.14;99.23
14067;BME280;7108;42.684;23.350;2023-04-29T06:48:21;95362.19;;;12.22;99.13
14067;BME280;7108;42.684;23.350;2023-04-29T06:50:49;95359.75;;;12.40;100.00
14067;BME280;7108;42.684;23.350;2023-04-29T06:53:14;95362.19;;;12.48;99.03
14067;BME280;7108;42.684;23.350;2023-04-29T06:55:40;95363.50;;;12.32;95.77
14067;BME280;7108;42.684;23.350;2023-04-29T06:58:06;95366.03;;;12.21;99.93
14067;BME280;7108;42.684;23.350;2023-04-29T07:00:32;95366.22;;;12.06;100.00
14067;BME280;7108;42.684;23.350;2023-04-29T07:02:57;95355.28;;;11.99;99.22
14067;BME280;7108;42.684;23.350;2023-04-29T07:05:23;95351.91;;;11.79;97.44
14067;BME280;7108;42.684;23.350;2023-04-29T07:07:49;95355.44;;;11.83;99.06
14067;BME280;7108;42.684;23.350;2023-04-29T07:10:20;95360.00;;;11.79;100.00
14067;BME280;7108;42.684;23.350;2023-04-29T07:12:45;95339.94;;;11.80;100.00
14067;BME280;7108;42.684;23.350;2023-04-29T07:15:11;95347.22;;;11.77;100.00
14067;BME280;7108;42.684;23.350;2023-04-29T07:17:37;95350.44;;;11.85;100.00
14067;BME280;7108;42.684;23.350;2023-04-29T07:20:03;95353.50;;;11.84;100.00
14067;BME280;7108;42.684;23.350;2023-04-29T07:22:29;95353.69;;;11.72;100.00
14067;BME280;7108;42.684;23.350;2023-04-29T07:24:57;95359.47;;;11.71;100.00
14067;BME280;7108;42.684;23.350;2023-04-29T07:27:23;95354.19;;;11.77;100.00
14067;BME280;7108;42.684;23.350;2023-04-29T07:29:49;95352.38;;;11.85;100.00
14067;BME280;7108;42.684;23.350;2023-04-29T07:32:17;95349.97;;;11.80;100.00
14067;BME280;7108;42.684;23.350;2023-04-29T07:34:43;95358.47;;;12.04;100.00
14067;BME280;7108;42.684;23.350;2023-04-29T07:37:08;95346.78;;;12.23;100.00
14067;BME280;7108;42.684;23.350;2023-04-29T07:39:40;95342.19;;;12.52;100.00
14067;BME280;7108;42.684;23.350;2023-04-29T07:42:06;95349.47;;;12.78;100.00
14067;BME280;7108;42.684;23.350;2023-04-29T07:44:32;95349.78;;;12.73;93.99
14067;BME280;7108;42.684;23.350;2023-04-29T07:46:58;95351.91;;;12.86;95.10
14067;BME280;7108;42.684;23.350;2023-04-29T07:49:23;95343.53;;;12.98;91.18
14067;BME280;7108;42.684;23.350;2023-04-29T07:51:50;95336.94;;;12.96;89.41
14067;BME280;7108;42.684;23.350;2023-04-29T07:54:18;95332.91;;;13.15;94.74
14067;BME280;7108;42.684;23.350;2023-04-29T07:56:47;95319.50;;;13.26;92.37
14067;BME280;7108;42.684;23.350;2023-04-29T07:59:13;95315.03;;;13.40;89.01
14067;BME280;7108;42.684;23.350;2023-04-29T08:01:40;95327.22;;;13.64;83.68
14067;BME280;7108;42.684;23.350;2023-04-29T08:04:05;95315.28;;;13.72;80.28
14067;BME280;7108;42.684;23.350;2023-04-29T08:06:32;95317.66;;;13.33;75.80
14067;BME280;7108;42.684;23.350;2023-04-29T08:08:58;95323.63;;;13.13;78.11
14067;BME280;7108;42.684;23.350;2023-04-29T08:11:23;95320.31;;;13.30;78.21
14067;BME280;7108;42.684;23.350;2023-04-29T08:13:50;95316.22;;;13.46;74.80
14067;BME280;7108;42.684;23.350;2023-04-29T08:16:16;95315.25;;;13.68;75.34
14067;BME280;7108;42.684;23.350;2023-04-29T08:18:41;95311.03;;;13.71;75.41
14067;BME280;7108;42.684;23.350;2023-04-29T08:21:07;95309.22;;;13.85;79.12
14067;BME280;7108;42.684;23.350;2023-04-29T08:23:33;95307.75;;;13.98;74.02
14067;BME280;7108;42.684;23.350;2023-04-29T08:25:59;95298.91;;;14.08;72.50
14067;BME280;7108;42.684;23.350;2023-04-29T08:28:28;95304.06;;;14.20;74.55
14067;BME280;7108;42.684;23.350;2023-04-29T08:30:53;95298.66;;;14.23;72.00
14067;BME280;7108;42.684;23.350;2023-04-29T08:33:20;95301.44;;;14.34;70.71
14067;BME280;7108;42.684;23.350;2023-04-29T08:35:46;95306.50;;;14.39;68.48
14067;BME280;7108;42.684;23.350;2023-04-29T08:38:17;95297.66;;;14.52;71.02
14067;BME280;7108;42.684;23.350;2023-04-29T08:40:44;95301.59;;;14.65;66.55
14067;BME280;7108;42.684;23.350;2023-04-29T08:43:12;95294.66;;;14.71;64.16
14067;BME280;7108;42.684;23.350;2023-04-29T08:45:38;95296.22;;;14.72;63.50
14067;BME280;7108;42.684;23.350;2023-04-29T08:48:08;95290.00;;;14.71;67.57
14067;BME280;7108;42.684;23.350;2023-04-29T08:50:38;95284.91;;;14.63;61.49
14067;BME280;7108;42.684;23.350;2023-04-29T08:53:18;95282.97;;;14.60;61.96
14067;BME280;7108;42.684;23.350;2023-04-29T08:55:46;95281.06;;;14.67;62.95
14067;BME280;7108;42.684;23.350;2023-04-29T08:58:13;95271.03;;;14.78;63.82
14067;BME280;7108;42.684;23.350;2023-04-29T09:00:41;95274.22;;;14.98;64.58
14067;BME280;7108;42.684;23.350;2023-04-29T09:03:16;95266.88;;;15.15;65.42
14067;BME280;7108;42.684;23.350;2023-04-29T09:05:47;95265.00;;;15.30;58.51
14067;BME280;7108;42.684;23.350;2023-04-29T09:08:14;95260.31;;;15.30;54.47
14067;BME280;7108;42.684;23.350;2023-04-29T09:10:45;95263.81;;;15.24;57.00
14067;BME280;7108;42.684;23.350;2023-04-29T09:13:26;95265.00;;;15.40;57.84
14067;BME280;7108;42.684;23.350;2023-04-29T09:15:52;95272.00;;;15.45;54.54
14067;BME280;7108;42.684;23.350;2023-04-29T09:18:50;95257.59;;;15.20;53.03
14067;BME280;7108;42.684;23.350;2023-04-29T09:21:20;95261.06;;;15.13;56.52
14067;BME280;7108;42.684;23.350;2023-04-29T09:23:47;95257.63;;;15.27;56.41
14067;BME280;7108;42.684;23.350;2023-04-29T09:26:16;95260.72;;;15.43;55.58
14067;BME280;7108;42.684;23.350;2023-04-29T09:28:42;95250.28;;;15.55;52.45
14067;BME280;7108;42.684;23.350;2023-04-29T09:31:10;95245.63;;;15.59;52.18
14067;BME280;7108;42.684;23.350;2023-04-29T09:33:52;95247.94;;;15.61;55.66
14067;BME280;7108;42.684;23.350;2023-04-29T09:36:46;95249.88;;;15.36;53.30
14067;BME280;7108;42.684;23.350;2023-04-29T09:39:16;95244.06;;;15.48;53.42
14067;BME280;7108;42.684;23.350;2023-04-29T09:46:59;95233.59;;;15.74;52.40
14067;BME280;7108;42.684;23.350;2023-04-29T09:49:32;95226.97;;;15.89;50.63
14067;BME280;7108;42.684;23.350;2023-04-29T09:52:09;95219.97;;;15.84;50.03
14067;BME280;7108;42.684;23.350;2023-04-29T09:54:38;95217.63;;;16.04;51.34
14067;BME280;7108;42.684;23.350;2023-04-29T09:57:04;95221.50;;;16.10;49.91
14067;BME280;7108;42.684;23.350;2023-04-29T09:59:34;95213.34;;;16.06;48.96
14067;BME280;7108;42.684;23.350;2023-04-29T10:02:01;95209.81;;;16.20;49.00
14067;BME280;7108;42.684;23.350;2023-04-29T10:04:33;95198.94;;;16.27;50.51
14067;BME280;7108;42.684;23.350;2023-04-29T10:06:59;95206.28;;;16.43;48.63
14067;BME280;7108;42.684;23.350;2023-04-29T10:09:26;95201.94;;;16.60;49.34
14067;BME280;7108;42.684;23.350;2023-04-29T10:11:52;95204.25;;;16.54;46.97
14067;BME280;7108;42.684;23.350;2023-04-29T10:14:23;95198.06;;;16.54;47.65
14067;BME280;7108;42.684;23.350;2023-04-29T10:17:01;95186.50;;;16.33;45.88
14067;BME280;7108;42.684;23.350;2023-04-29T10:19:38;95198.50;;;16.39;47.52
14067;BME280;7108;42.684;23.350;2023-04-29T10:22:17;95182.22;;;16.35;48.72
14067;BME280;7108;42.684;23.350;2023-04-29T10:24:45;95182.97;;;16.39;49.80
14067;BME280;7108;42.684;23.350;2023-04-29T10:27:11;95167.78;;;16.48;52.44
14067;BME280;7108;42.684;23.350;2023-04-29T10:29:38;95182.06;;;16.70;52.70
14067;BME280;7108;42.684;23.350;2023-04-29T10:32:07;95171.97;;;16.67;47.42
14067;BME280;7108;42.684;23.350;2023-04-29T10:34:36;95179.72;;;16.68;45.38
14067;BME280;7108;42.684;23.350;2023-04-29T10:37:02;95168.53;;;16.56;44.13
14067;BME280;7108;42.684;23.350;2023-04-29T10:39:49;95176.00;;;16.35;43.05
14067;BME280;7108;42.684;23.350;2023-04-29T10:45:27;95168.47;;;16.63;44.36
14067;BME280;7108;42.684;23.350;2023-04-29T10:53:14;95165.09;;;16.42;44.70
14067;BME280;7108;42.684;23.350;2023-04-29T10:55:40;95168.94;;;16.51;45.68
14067;BME280;7108;42.684;23.350;2023-04-29T10:58:35;95174.31;;;16.61;46.16
14067;BME280;7108;42.684;23.350;2023-04-29T11:01:01;95164.19;;;16.65;46.75
14067;BME280;7108;42.684;23.350;2023-04-29T11:06:21;95161.94;;;16.50;44.97
14067;BME280;7108;42.684;23.350;2023-04-29T11:08:59;95167.75;;;16.52;44.90
14067;BME280;7108;42.684;23.350;2023-04-29T11:11:25;95158.38;;;16.63;43.48
14067;BME280;7108;42.684;23.350;2023-04-29T11:13:51;95156.84;;;16.59;43.36
14067;BME280;7108;42.684;23.350;2023-04-29T11:16:25;95161.97;;;16.40;39.57
14067;BME280;7108;42.684;23.350;2023-04-29T11:19:06;95143.81;;;16.19;39.58
14067;BME280;7108;42.684;23.350;2023-04-29T11:21:34;95163.59;;;16.13;37.32
14067;BME280;7108;42.684;23.350;2023-04-29T11:23:59;95159.38;;;16.05;38.24
14067;BME280;7108;42.684;23.350;2023-04-29T11:26:25;95147.34;;;15.95;38.38
14067;BME280;7108;42.684;23.350;2023-04-29T11:28:51;95166.38;;;15.99;40.83
14067;BME280;7108;42.684;23.350;2023-04-29T11:31:18;95150.88;;;15.85;41.39
14067;BME280;7108;42.684;23.350;2023-04-29T11:33:45;95162.91;;;15.95;41.36
14067;BME280;7108;42.684;23.350;2023-04-29T11:36:11;95149.31;;;15.98;38.88
14067;BME280;7108;42.684;23.350;2023-04-29T11:38:38;95146.19;;;15.96;38.53
14067;BME280;7108;42.684;23.350;2023-04-29T11:41:05;95155.50;;;16.02;38.63
14067;BME280;7108;42.684;23.350;2023-04-29T11:43:30;95154.28;;;16.10;41.07
14067;BME280;7108;42.684;23.350;2023-04-29T11:45:56;95149.25;;;16.09;39.61
14067;BME280;7108;42.684;23.350;2023-04-29T11:48:23;95144.63;;;16.06;39.57
14067;BME280;7108;42.684;23.350;2023-04-29T11:50:50;95147.69;;;16.08;40.39
14067;BME280;7108;42.684;23.350;2023-04-29T11:53:21;95156.66;;;16.12;41.23
14067;BME280;7108;42.684;23.350;2023-04-29T11:55:51;95149.25;;;16.09;41.09
14067;BME280;7108;42.684;23.350;2023-04-29T11:58:19;95153.19;;;16.01;40.75
14067;BME280;7108;42.684;23.350;2023-04-29T12:00:46;95147.00;;;15.97;43.91
14067;BME280;7108;42.684;23.350;2023-04-29T12:03:19;95150.13;;;15.88;41.22
14067;BME280;7108;42.684;23.350;2023-04-29T12:05:50;95134.97;;;15.84;41.52
14067;BME280;7108;42.684;23.350;2023-04-29T12:08:24;95143.53;;;15.82;42.99
14067;BME280;7108;42.684;23.350;2023-04-29T12:10:51;95128.00;;;15.79;43.47
14067;BME280;7108;42.684;23.350;2023-04-29T12:13:18;95138.09;;;15.82;48.73
14067;BME280;7108;42.684;23.350;2023-04-29T12:15:45;95134.97;;;15.80;44.66
14067;BME280;7108;42.684;23.350;2023-04-29T12:18:12;95131.50;;;15.76;44.37
14067;BME280;7108;42.684;23.350;2023-04-29T12:20:38;95131.09;;;15.85;45.93
14067;BME280;7108;42.684;23.350;2023-04-29T12:23:11;95140.00;;;15.92;43.94
14067;BME280;7108;42.684;23.350;2023-04-29T12:25:36;95133.00;;;15.95;44.00
14067;BME280;7108;42.684;23.350;2023-04-29T12:28:02;95130.25;;;16.05;45.35
14067;BME280;7108;42.684;23.350;2023-04-29T12:30:28;95122.47;;;16.11;44.42
14067;BME280;7108;42.684;23.350;2023-04-29T12:32:54;95125.59;;;16.09;44.78
14067;BME280;7108;42.684;23.350;2023-04-29T12:35:19;95125.19;;;16.07;45.67
14067;BME280;7108;42.684;23.350;2023-04-29T12:37:49;95112.75;;;16.10;46.02
14067;BME280;7108;42.684;23.350;2023-04-29T12:40:16;95113.16;;;16.12;46.09
14067;BME280;7108;42.684;23.350;2023-04-29T12:42:42;95112.34;;;16.15;45.84
14067;BME280;7108;42.684;23.350;2023-04-29T12:45:25;95095.69;;;16.06;45.27
14067;BME280;7108;42.684;23.350;2023-04-29T12:47:51;95102.63;;;16.17;46.07
14067;BME280;7108;42.684;23.350;2023-04-29T12:50:16;95104.94;;;16.22;46.81
14067;BME280;7108;42.684;23.350;2023-04-29T12:52:42;95109.97;;;16.34;47.15
14067;BME280;7108;42.684;23.350;2023-04-29T12:55:07;95105.28;;;16.35;48.63
14067;BME280;7108;42.684;23.350;2023-04-29T12:57:33;95102.56;;;16.38;47.35
14067;BME280;7108;42.684;23.350;2023-04-29T12:59:58;95104.84;;;16.43;48.89
14067;BME280;7108;42.684;23.350;2023-04-29T13:02:24;95087.38;;;16.44;47.84
14067;BME280;7108;42.684;23.350;2023-04-29T13:04:50;95103.28;;;16.45;47.76
14067;BME280;7108;42.684;23.350;2023-04-29T13:07:15;95099.41;;;16.46;48.95
14067;BME280;7108;42.684;23.350;2023-04-29T13:09:40;95106.31;;;16.61;50.98
14067;BME280;7108;42.684;23.350;2023-04-29T13:12:06;95105.53;;;16.61;48.85
14067;BME280;7108;42.684;23.350;2023-04-29T13:14:33;95110.63;;;16.55;45.23
14067;BME280;7108;42.684;23.350;2023-04-29T13:16:58;95110.63;;;16.55;47.41
14067;BME280;7108;42.684;23.350;2023-04-29T13:19:24;95112.59;;;16.51;46.85
14067;BME280;7108;42.684;23.350;2023-04-29T13:21:49;95109.91;;;16.44;48.25
14067;BME280;7108;42.684;23.350;2023-04-29T13:24:15;95105.59;;;16.47;53.68
14067;BME280;7108;42.684;23.350;2023-04-29T13:26:43;95096.28;;;16.48;53.57
14067;BME280;7108;42.684;23.350;2023-04-29T13:29:08;95097.81;;;16.52;59.25